Time;durP1;ratioP1;P1;durP2;ratioP2;P2;SDS_P1;SDS_P2;PMS_P1;PMS_P2;Temp;Humidity;BMP_temperature;BMP_pressure;BME280_temperature;BME280_humidity;BME280_pressure;Samples;Min_cycle;Max_cycle;Signal;HPM_P1;HPM_P2
2024/01/13 00:01:30;;;;;;;12.82;6.72;;;;;;;;;;5047700;28;20434;-81
2024/01/13 00:03:56;;;;;;;11.73;6.40;;;;;;;;;;5045589;28;20039;-80
2024/01/13 00:06:25;;;;;;;12.65;7.22;;;;;;;;;;5044346;28;20024;-81
2024/01/13 00:08:54;;;;;;;11.27;6.88;;;;;;;;;;5048259;28;20020;-82
2024/01/13 00:11:22;;;;;;;11.02;6.28;;;;;;;;;;5042851;28;20963;-82
2024/01/13 00:13:49;;;;;;;10.77;6.82;;;;;;;;;;5045389;28;20161;-82
2024/01/13 00:16:16;;;;;;;11.23;6.68;;;;;;;;;;5027611;28;20038;-82
2024/01/13 00:18:43;;;;;;;10.50;5.95;;;;;;;;;;5051537;28;20135;-81
2024/01/13 00:21:13;;;;;;;10.20;6.43;;;;;;;;;;5043563;28;20119;-82
2024/01/13 00:23:42;;;;;;;11.02;6.30;;;;;;;;;;5046742;28;20037;-82
2024/01/13 00:26:08;;;;;;;10.68;6.72;;;;;;;;;;5047753;28;20052;-81
2024/01/13 00:28:40;;;;;;;11.13;6.15;;;;;;;;;;5054728;28;20030;-82
2024/01/13 00:31:09;;;;;;;10.93;6.40;;;;;;;;;;5030679;28;20032;-81
2024/01/13 00:33:35;;;;;;;10.60;6.53;;;;;;;;;;5050839;28;20035;-82
2024/01/13 00:36:01;;;;;;;;;;;;;;;;;;5051429;28;20153;-82
2024/01/13 00:38:29;;;;;;;10.95;6.32;;;;;;;;;;5065801;28;20576;-82
2024/01/13 00:40:57;;;;;;;11.40;6.32;;;;;;;;;;5048909;28;20052;-81
2024/01/13 00:43:25;;;;;;;10.68;5.47;;;;;;;;;;5066520;28;20072;-81
2024/01/13 00:45:52;;;;;;;11.15;6.38;;;;;;;;;;5069865;28;21091;-81
2024/01/13 00:48:21;;;;;;;12.80;7.97;;;;;;;;;;5052729;28;20028;-81
2024/01/13 00:50:48;;;;;;;14.43;8.65;;;;;;;;;;5066580;28;20071;-81
2024/01/13 00:53:15;;;;;;;15.18;9.45;;;;;;;;;;5067200;28;20063;-80
2024/01/13 00:55:44;;;;;;;12.70;7.40;;;;;;;;;;5058651;28;20135;-81
2024/01/13 00:58:35;;;;;;;12.82;7.07;;;;;;;;;;5056412;28;20048;-79
2024/01/13 01:01:03;;;;;;;14.73;7.75;;;;;;;;;;5073592;28;20032;-82
2024/01/13 01:03:31;;;;;;;13.35;7.55;;;;;;;;;;5072496;28;20020;-79
2024/01/13 01:05:59;;;;;;;12.77;6.68;;;;;;;;;;5057215;28;20837;-80
2024/01/13 01:08:28;;;;;;;11.77;6.53;;;;;;;;;;5055060;28;20028;-80
2024/01/13 01:11:04;;;;;;;13.25;6.55;;;;;;;;;;5073279;28;20032;-82
2024/01/13 01:13:33;;;;;;;11.85;6.10;;;;;;;;;;5052641;28;20044;-80
2024/01/13 01:16:02;;;;;;;10.80;5.47;;;;;;;;;;5068222;28;20805;-80
2024/01/13 01:18:30;;;;;;;10.55;5.53;;;;;;;;;;5069762;28;20028;-80
2024/01/13 01:20:58;;;;;;;12.18;6.53;;;;;;;;;;5069027;28;20579;-80
2024/01/13 01:23:27;;;;;;;11.00;5.78;;;;;;;;;;5052670;28;20020;-80
2024/01/13 01:25:55;;;;;;;12.18;5.90;;;;;;;;;;5049533;28;20436;-81
2024/01/13 01:28:22;;;;;;;10.20;4.75;;;;;;;;;;5048517;28;20683;-81
2024/01/13 01:30:50;;;;;;;11.32;5.20;;;;;;;;;;5053476;28;20040;-80
2024/01/13 01:33:17;;;;;;;9.95;4.85;;;;;;;;;;5068316;28;20230;-80
2024/01/13 01:35:45;;;;;;;10.95;4.68;;;;;;;;;;5070626;28;20265;-80
2024/01/13 01:38:14;;;;;;;10.95;6.28;;;;;;;;;;5063841;28;20042;-81
2024/01/13 01:40:42;;;;;;;11.48;6.80;;;;;;;;;;5070130;28;20020;-80
2024/01/13 01:43:09;;;;;;;13.00;6.80;;;;;;;;;;5034015;28;20427;-80
2024/01/13 01:45:38;;;;;;;10.55;5.35;;;;;;;;;;5068953;28;20081;-81
2024/01/13 01:48:08;;;;;;;11.13;5.40;;;;;;;;;;5050030;28;20020;-80
2024/01/13 01:50:37;;;;;;;9.90;4.80;;;;;;;;;;5052504;28;20084;-80
2024/01/13 01:53:06;;;;;;;9.20;3.97;;;;;;;;;;5067342;28;20117;-81
2024/01/13 01:55:33;;;;;;;9.57;3.90;;;;;;;;;;5067813;28;20037;-80
2024/01/13 01:58:05;;;;;;;10.63;5.22;;;;;;;;;;5067737;28;20028;-80
2024/01/13 02:00:34;;;;;;;12.10;6.35;;;;;;;;;;5052494;28;20024;-80
2024/01/13 02:03:02;;;;;;;11.90;6.28;;;;;;;;;;5049569;28;20032;-82
2024/01/13 02:05:31;;;;;;;12.23;5.85;;;;;;;;;;5069007;28;20046;-80
2024/01/13 02:07:59;;;;;;;9.18;4.63;;;;;;;;;;5069413;28;20059;-80
2024/01/13 02:10:26;;;;;;;10.05;4.10;;;;;;;;;;5034289;28;20117;-79
2024/01/13 02:12:52;;;;;;;10.07;3.92;;;;;;;;;;5051551;28;20025;-79
2024/01/13 02:15:21;;;;;;;10.02;3.90;;;;;;;;;;5063284;28;20047;-79
2024/01/13 02:17:50;;;;;;;9.13;3.83;;;;;;;;;;5067767;28;20040;-80
2024/01/13 02:20:17;;;;;;;9.18;4.00;;;;;;;;;;5048489;28;20037;-79
2024/01/13 02:22:45;;;;;;;10.13;4.40;;;;;;;;;;5053150;28;20377;-81
2024/01/13 02:25:14;;;;;;;10.05;5.05;;;;;;;;;;5066199;28;20052;-80
2024/01/13 02:27:43;;;;;;;10.10;5.28;;;;;;;;;;5045580;28;20413;-81
2024/01/13 02:30:33;;;;;;;10.45;4.68;;;;;;;;;;5047366;28;20061;-81
2024/01/13 02:33:01;;;;;;;11.90;4.93;;;;;;;;;;5047005;28;20012;-82
2024/01/13 02:35:30;;;;;;;9.85;5.13;;;;;;;;;;5047761;28;20059;-82
2024/01/13 02:37:59;;;;;;;10.07;5.03;;;;;;;;;;5045754;28;20032;-80
2024/01/13 02:40:28;;;;;;;9.93;4.70;;;;;;;;;;5046404;28;20021;-80
2024/01/13 02:42:57;;;;;;;10.40;4.90;;;;;;;;;;5042205;28;20486;-80
2024/01/13 02:45:23;;;;;;;10.93;4.82;;;;;;;;;;5045125;28;20040;-80
2024/01/13 02:48:11;;;;;;;10.20;4.88;;;;;;;;;;5046419;28;20063;-80
2024/01/13 02:50:39;;;;;;;10.48;5.10;;;;;;;;;;5043477;28;20625;-80
2024/01/13 02:53:07;;;;;;;10.98;5.05;;;;;;;;;;5045526;28;20321;-79
2024/01/13 02:55:36;;;;;;;10.60;5.47;;;;;;;;;;5050285;28;20035;-80
2024/01/13 02:58:05;;;;;;;12.68;5.90;;;;;;;;;;5044794;28;20033;-81
2024/01/13 03:00:33;;;;;;;12.30;5.65;;;;;;;;;;5046251;28;20028;-79
2024/01/13 03:03:03;;;;;;;10.05;5.28;;;;;;;;;;5042985;28;20024;-80
2024/01/13 03:05:31;;;;;;;10.25;5.00;;;;;;;;;;5043797;28;20134;-80
2024/01/13 03:08:00;;;;;;;11.77;5.50;;;;;;;;;;5049032;28;20032;-80
2024/01/13 03:10:31;;;;;;;10.43;5.25;;;;;;;;;;5049961;28;20117;-80
2024/01/13 03:12:58;;;;;;;10.57;4.97;;;;;;;;;;5053487;28;20643;-80
2024/01/13 03:15:26;;;;;;;9.68;4.57;;;;;;;;;;5048126;28;20097;-80
2024/01/13 03:17:55;;;;;;;9.40;4.60;;;;;;;;;;5044908;28;20031;-80
2024/01/13 03:20:23;;;;;;;10.68;5.00;;;;;;;;;;5044305;28;24228;-81
2024/01/13 03:22:52;;;;;;;10.82;4.90;;;;;;;;;;5047385;28;20020;-81
2024/01/13 03:25:24;;;;;;;9.40;4.53;;;;;;;;;;5047646;28;20046;-81
2024/01/13 03:27:53;;;;;;;11.48;5.00;;;;;;;;;;5048507;28;20079;-82
2024/01/13 03:30:21;;;;;;;11.82;5.30;;;;;;;;;;5043700;28;20120;-82
2024/01/13 03:32:50;;;;;;;12.02;5.32;;;;;;;;;;5046379;28;20037;-81
2024/01/13 03:35:17;;;;;;;10.07;4.60;;;;;;;;;;5042741;28;20039;-81
2024/01/13 03:37:46;;;;;;;10.35;4.30;;;;;;;;;;5046809;28;20181;-81
2024/01/13 03:40:14;;;;;;;10.30;4.93;;;;;;;;;;5045597;28;20028;-81
2024/01/13 03:42:45;;;;;;;10.75;4.40;;;;;;;;;;5046221;28;20033;-81
2024/01/13 03:45:14;;;;;;;9.82;4.20;;;;;;;;;;5041378;28;20124;-81
2024/01/13 03:47:42;;;;;;;10.60;4.00;;;;;;;;;;5041781;28;20746;-81
2024/01/13 03:50:11;;;;;;;8.88;3.60;;;;;;;;;;5042570;28;20809;-81
2024/01/13 03:52:41;;;;;;;9.18;3.53;;;;;;;;;;5042891;28;20024;-81
2024/01/13 03:55:10;;;;;;;9.32;3.45;;;;;;;;;;5042788;28;20126;-81
2024/01/13 03:57:39;;;;;;;9.57;4.18;;;;;;;;;;5043226;28;20038;-81
2024/01/13 04:00:09;;;;;;;9.93;4.57;;;;;;;;;;5042780;28;20068;-81
2024/01/13 04:02:35;;;;;;;10.90;4.60;;;;;;;;;;5043489;28;20016;-81
2024/01/13 04:05:27;;;;;;;9.25;4.10;;;;;;;;;;5041289;28;20033;-81
2024/01/13 04:07:55;;;;;;;9.35;3.90;;;;;;;;;;5041550;28;20132;-80
2024/01/13 04:10:24;;;;;;;10.80;4.93;;;;;;;;;;5045798;28;20029;-80
2024/01/13 04:12:52;;;;;;;11.32;5.47;;;;;;;;;;5047921;28;20119;-80
2024/01/13 04:15:21;;;;;;;12.43;5.30;;;;;;;;;;5044618;28;20024;-80
2024/01/13 04:17:50;;;;;;;13.27;5.25;;;;;;;;;;5045768;28;20087;-80
2024/01/13 04:20:19;;;;;;;11.00;4.72;;;;;;;;;;5047804;28;20686;-81
2024/01/13 04:22:46;;;;;;;12.52;4.70;;;;;;;;;;5048574;28;20131;-80
2024/01/13 04:25:14;;;;;;;10.25;4.68;;;;;;;;;;5046988;28;20491;-80
2024/01/13 04:27:42;;;;;;;11.38;4.43;;;;;;;;;;5061882;28;20143;-80
2024/01/13 04:30:11;;;;;;;11.93;4.75;;;;;;;;;;5048814;28;20134;-79
2024/01/13 04:32:39;;;;;;;10.35;4.53;;;;;;;;;;5071343;28;20046;-80
2024/01/13 04:35:07;;;;;;;9.57;3.88;;;;;;;;;;5068907;28;20024;-80
2024/01/13 04:37:37;;;;;;;13.20;3.70;;;;;;;;;;5053383;28;20548;-80
2024/01/13 04:40:06;;;;;;;9.20;3.50;;;;;;;;;;5035579;28;20044;-80
2024/01/13 04:42:34;;;;;;;9.68;3.15;;;;;;;;;;5051093;28;20183;-82
2024/01/13 04:45:03;;;;;;;8.25;3.33;;;;;;;;;;5054170;28;20054;-80
2024/01/13 04:47:32;;;;;;;8.50;3.00;;;;;;;;;;5070616;28;20032;-80
2024/01/13 04:50:01;;;;;;;7.97;2.72;;;;;;;;;;5070610;28;20034;-80
2024/01/13 04:52:28;;;;;;;7.78;2.65;;;;;;;;;;5068053;28;20031;-79
2024/01/13 04:54:55;;;;;;;7.50;2.65;;;;;;;;;;5053429;28;20161;-80
2024/01/13 04:57:24;;;;;;;8.63;3.28;;;;;;;;;;5050820;28;20032;-81
2024/01/13 04:59:52;;;;;;;9.43;3.70;;;;;;;;;;5069993;28;20066;-81
2024/01/13 05:02:21;;;;;;;8.05;3.20;;;;;;;;;;5051973;28;20027;-81
2024/01/13 05:04:49;;;;;;;9.50;3.55;;;;;;;;;;5051739;28;20097;-80
2024/01/13 05:07:20;;;;;;;9.65;3.65;;;;;;;;;;5065726;28;20031;-80
2024/01/13 05:09:50;;;;;;;9.48;3.38;;;;;;;;;;5068050;28;20078;-79
2024/01/13 05:12:19;;;;;;;8.75;3.08;;;;;;;;;;5064487;28;20062;-80
2024/01/13 05:14:46;;;;;;;8.85;3.30;;;;;;;;;;5052405;28;20079;-80
2024/01/13 05:17:12;;;;;;;8.63;3.17;;;;;;;;;;5050474;28;20028;-80
2024/01/13 05:19:41;;;;;;;8.10;2.90;;;;;;;;;;5053500;28;20118;-80
2024/01/13 05:22:10;;;;;;;8.85;2.72;;;;;;;;;;5058892;28;20791;-80
2024/01/13 05:24:39;;;;;;;10.70;3.45;;;;;;;;;;5051754;28;20050;-80
2024/01/13 05:27:05;;;;;;;9.52;3.63;;;;;;;;;;5060435;28;20047;-80
2024/01/13 05:29:33;;;;;;;9.65;3.13;;;;;;;;;;5069472;28;20139;-80
2024/01/13 05:32:02;;;;;;;8.75;3.20;;;;;;;;;;5069934;28;20032;-80
2024/01/13 05:34:29;;;;;;;8.02;2.90;;;;;;;;;;5052252;28;20127;-80
2024/01/13 05:37:01;;;;;;;9.05;2.90;;;;;;;;;;5068123;28;20170;-79
2024/01/13 05:39:29;;;;;;;8.35;3.00;;;;;;;;;;5069103;28;20793;-79
2024/01/13 05:41:58;;;;;;;7.57;2.90;;;;;;;;;;5070810;28;20089;-80
2024/01/13 05:44:26;;;;;;;8.77;2.88;;;;;;;;;;5063854;28;20055;-80
2024/01/13 05:46:55;;;;;;;7.65;2.90;;;;;;;;;;5034830;28;20555;-80
2024/01/13 05:49:24;;;;;;;7.80;2.53;;;;;;;;;;5064566;28;20036;-80
2024/01/13 05:51:51;;;;;;;8.38;2.90;;;;;;;;;;5033201;28;20846;-80
2024/01/13 05:54:20;;;;;;;7.93;2.95;;;;;;;;;;5049755;28;20510;-79
2024/01/13 05:57:11;;;;;;;7.57;2.83;;;;;;;;;;5064785;28;20048;-80
2024/01/13 05:59:38;;;;;;;7.15;2.40;;;;;;;;;;5065955;28;20035;-80
2024/01/13 06:02:06;;;;;;;6.88;2.53;;;;;;;;;;5065668;28;20119;-81
2024/01/13 06:04:34;;;;;;;7.72;2.40;;;;;;;;;;5054681;28;20032;-81
2024/01/13 06:07:04;;;;;;;5.72;1.80;;;;;;;;;;5068117;28;20024;-81
2024/01/13 06:09:42;;;;;;;6.82;2.50;;;;;;;;;;5068761;28;20150;-79
2024/01/13 06:12:10;;;;;;;6.82;2.70;;;;;;;;;;5068486;28;20221;-80
2024/01/13 06:14:39;;;;;;;7.55;2.80;;;;;;;;;;5028263;28;20046;-80
2024/01/13 06:17:05;;;;;;;7.18;2.47;;;;;;;;;;5030493;28;20043;-80
2024/01/13 06:19:35;;;;;;;6.80;2.10;;;;;;;;;;5069893;28;20026;-80
2024/01/13 06:22:05;;;;;;;6.40;2.17;;;;;;;;;;5045517;28;20045;-80
2024/01/13 06:24:33;;;;;;;6.05;1.98;;;;;;;;;;5066826;28;20008;-80
2024/01/13 06:27:00;;;;;;;6.15;1.90;;;;;;;;;;5047494;28;20041;-80
2024/01/13 06:29:28;;;;;;;4.40;1.60;;;;;;;;;;5044988;28;20094;-80
2024/01/13 06:31:58;;;;;;;5.63;1.80;;;;;;;;;;5045918;28;20040;-80
2024/01/13 06:34:25;;;;;;;5.85;1.85;;;;;;;;;;5042709;28;20025;-80
2024/01/13 06:36:54;;;;;;;6.18;1.80;;;;;;;;;;5047900;28;20032;-80
2024/01/13 06:39:21;;;;;;;5.15;1.77;;;;;;;;;;5043890;28;20036;-80
2024/01/13 06:41:50;;;;;;;5.75;2.15;;;;;;;;;;5044910;28;20577;-80
2024/01/13 06:44:19;;;;;;;7.72;2.40;;;;;;;;;;5044867;28;20044;-80
2024/01/13 06:46:46;;;;;;;7.88;2.58;;;;;;;;;;5044704;28;20193;-80
2024/01/13 06:49:12;;;;;;;6.85;2.30;;;;;;;;;;5046870;28;20032;-80
2024/01/13 06:51:41;;;;;;;7.90;2.40;;;;;;;;;;5046897;28;20048;-80
2024/01/13 06:54:10;;;;;;;6.07;1.80;;;;;;;;;;5044719;28;20471;-80
2024/01/13 06:56:37;;;;;;;8.15;2.22;;;;;;;;;;5044324;28;20032;-80
2024/01/13 06:59:07;;;;;;;4.63;1.77;;;;;;;;;;5044358;28;20953;-80
2024/01/13 07:01:43;;;;;;;5.40;1.90;;;;;;;;;;5046899;28;20121;-80
2024/01/13 07:04:12;;;;;;;8.02;2.10;;;;;;;;;;5045710;28;20029;-80
2024/01/13 07:06:41;;;;;;;7.22;2.38;;;;;;;;;;5044375;28;20054;-80
2024/01/13 07:09:09;;;;;;;7.40;2.55;;;;;;;;;;5045262;28;20139;-81
2024/01/13 07:11:37;;;;;;;7.40;2.72;;;;;;;;;;5049477;28;20847;-81
2024/01/13 07:14:05;;;;;;;7.07;2.50;;;;;;;;;;5045266;28;21132;-80
2024/01/13 07:16:35;;;;;;;7.50;3.13;;;;;;;;;;5046588;28;20045;-80
2024/01/13 07:19:01;;;;;;;9.68;3.20;;;;;;;;;;5045792;28;20590;-81
2024/01/13 07:21:30;;;;;;;8.52;2.90;;;;;;;;;;5047254;28;20039;-80
2024/01/13 07:24:00;;;;;;;7.10;2.60;;;;;;;;;;5043040;28;20496;-80
2024/01/13 07:26:29;;;;;;;7.88;2.90;;;;;;;;;;5043718;28;20643;-80
2024/01/13 07:28:56;;;;;;;8.77;2.72;;;;;;;;;;5065675;28;20128;-80
2024/01/13 07:31:24;;;;;;;8.75;3.38;;;;;;;;;;5030494;28;20032;-78
2024/01/13 07:33:51;;;;;;;7.28;2.50;;;;;;;;;;5061204;28;20095;-80
2024/01/13 07:36:18;;;;;;;8.45;2.67;;;;;;;;;;5057547;28;20037;-81
2024/01/13 07:38:45;;;;;;;9.48;3.30;;;;;;;;;;5063179;28;20635;-81
2024/01/13 07:41:14;;;;;;;12.70;3.45;;;;;;;;;;5063244;28;20054;-80
2024/01/13 07:43:42;;;;;;;9.63;3.20;;;;;;;;;;5045573;28;20909;-81
2024/01/13 07:46:12;;;;;;;8.30;2.95;;;;;;;;;;5046982;28;20464;-81
2024/01/13 07:48:40;;;;;;;9.77;3.28;;;;;;;;;;5065162;28;20028;-80
2024/01/13 07:51:07;;;;;;;8.57;3.00;;;;;;;;;;5034350;28;20024;-81
2024/01/13 07:53:36;;;;;;;8.95;3.65;;;;;;;;;;5051982;28;20028;-82
2024/01/13 07:56:05;;;;;;;9.95;4.45;;;;;;;;;;5053933;28;20660;-82
2024/01/13 07:58:34;;;;;;;10.50;4.45;;;;;;;;;;5053870;28;20699;-81
2024/01/13 08:01:05;;;;;;;12.90;7.45;;;;;;;;;;5067513;28;20032;-80
2024/01/13 08:03:34;;;;;;;15.32;8.63;;;;;;;;;;5069994;28;20051;-81
2024/01/13 08:06:02;;;;;;;13.35;7.57;;;;;;;;;;5052291;28;20036;-81
2024/01/13 08:08:32;;;;;;;12.70;7.13;;;;;;;;;;5052365;28;20068;-81
2024/01/13 08:11:10;;;;;;;10.10;5.32;;;;;;;;;;5065790;28;20641;-82
2024/01/13 08:13:38;;;;;;;10.82;5.65;;;;;;;;;;5054253;28;20800;-83
2024/01/13 08:16:06;;;;;;;9.82;5.25;;;;;;;;;;5050303;28;20040;-81
2024/01/13 08:18:36;;;;;;;10.77;5.82;;;;;;;;;;5065855;28;20032;-81
2024/01/13 08:21:04;;;;;;;11.38;5.68;;;;;;;;;;5068294;28;20036;-81
2024/01/13 08:23:32;;;;;;;12.00;5.85;;;;;;;;;;5055362;28;20024;-81
2024/01/13 08:26:01;;;;;;;11.63;5.93;;;;;;;;;;5055542;28;20059;-82
2024/01/13 08:28:31;;;;;;;12.68;6.40;;;;;;;;;;5069657;28;20659;-82
2024/01/13 08:30:59;;;;;;;12.23;6.63;;;;;;;;;;5052526;28;20044;-81
2024/01/13 08:33:27;;;;;;;14.85;7.03;;;;;;;;;;5071620;28;20024;-80
2024/01/13 08:35:55;;;;;;;15.23;7.45;;;;;;;;;;5069620;28;20028;-81
2024/01/13 08:38:23;;;;;;;14.05;9.35;;;;;;;;;;5066288;28;20054;-82
2024/01/13 08:40:49;;;;;;;15.00;9.77;;;;;;;;;;5053860;28;20100;-83
2024/01/13 08:43:18;;;;;;;16.05;9.05;;;;;;;;;;5065897;28;20024;-83
2024/01/13 08:45:47;;;;;;;14.00;7.60;;;;;;;;;;5070831;28;20089;-82
2024/01/13 08:48:15;;;;;;;14.63;8.15;;;;;;;;;;5067708;28;20054;-82
2024/01/13 08:50:44;;;;;;;19.25;10.27;;;;;;;;;;5069253;28;20582;-81
2024/01/13 08:53:14;;;;;;;18.77;9.73;;;;;;;;;;5065369;28;20040;-80
2024/01/13 08:55:41;;;;;;;21.23;14.23;;;;;;;;;;5055343;28;20059;-81
2024/01/13 08:58:10;;;;;;;20.58;12.90;;;;;;;;;;5062478;28;20025;-82
2024/01/13 09:00:37;;;;;;;23.60;17.48;;;;;;;;;;5053728;28;20691;-80
2024/01/13 09:03:06;;;;;;;21.98;15.85;;;;;;;;;;5050760;28;20893;-82
2024/01/13 09:05:36;;;;;;;22.88;15.05;;;;;;;;;;5071991;28;20032;-81
2024/01/13 09:08:13;;;;;;;28.88;19.88;;;;;;;;;;5067205;28;20035;-83
2024/01/13 09:10:45;;;;;;;20.20;14.13;;;;;;;;;;5053050;28;20484;-81
2024/01/13 09:13:11;;;;;;;17.88;11.13;;;;;;;;;;5047822;28;20052;-81
2024/01/13 09:15:40;;;;;;;17.33;12.40;;;;;;;;;;5065150;28;20034;-82
2024/01/13 09:18:08;;;;;;;20.52;12.05;;;;;;;;;;5062744;28;20036;-82
2024/01/13 09:20:37;;;;;;;17.73;11.00;;;;;;;;;;5050479;28;20032;-83
2024/01/13 09:23:06;;;;;;;15.60;9.57;;;;;;;;;;5051197;28;20048;-82
2024/01/13 09:25:35;;;;;;;15.18;8.77;;;;;;;;;;5065083;28;20035;-81
2024/01/13 09:28:04;;;;;;;13.35;9.15;;;;;;;;;;5068324;28;20852;-80
2024/01/13 09:30:33;;;;;;;17.05;8.27;;;;;;;;;;5068631;28;20035;-81
2024/01/13 09:32:59;;;;;;;13.93;8.55;;;;;;;;;;5050614;28;20533;-81
2024/01/13 09:35:31;;;;;;;13.43;8.52;;;;;;;;;;5064599;28;20024;-81
2024/01/13 09:38:19;;;;;;;14.30;7.78;;;;;;;;;;5049802;28;20065;-82
2024/01/13 09:40:46;;;;;;;13.23;7.60;;;;;;;;;;5050864;28;20133;-80
2024/01/13 09:43:31;;;;;;;11.40;6.15;;;;;;;;;;5068107;28;20124;-80
2024/01/13 09:46:00;;;;;;;11.57;5.82;;;;;;;;;;5067523;28;20043;-80
2024/01/13 09:48:48;;;;;;;13.35;6.00;;;;;;;;;;5067469;28;20044;-80
2024/01/13 09:51:16;;;;;;;9.55;4.90;;;;;;;;;;5048454;28;20050;-81
2024/01/13 09:53:47;;;;;;;11.13;5.55;;;;;;;;;;5035601;28;20028;-81
2024/01/13 09:56:22;;;;;;;11.75;5.55;;;;;;;;;;5067708;28;20032;-83
2024/01/13 09:58:50;;;;;;;12.00;5.43;;;;;;;;;;5034921;28;20138;-83
2024/01/13 10:01:20;;;;;;;10.07;5.32;;;;;;;;;;5063238;28;20028;-83
2024/01/13 10:03:47;;;;;;;10.40;5.63;;;;;;;;;;5056960;28;20826;-82
2024/01/13 10:06:25;;;;;;;10.50;5.35;;;;;;;;;;5066930;28;20043;-84
2024/01/13 10:08:54;;;;;;;9.75;4.70;;;;;;;;;;5053952;28;20036;-83
2024/01/13 10:11:22;;;;;;;12.25;5.22;;;;;;;;;;5067922;28;20037;-85
2024/01/13 10:14:02;;;;;;;8.48;3.50;;;;;;;;;;5049384;28;20074;-86
2024/01/13 10:16:32;;;;;;;7.47;3.22;;;;;;;;;;5069241;28;20866;-81
2024/01/13 10:19:00;;;;;;;8.27;2.90;;;;;;;;;;5050489;28;20093;-86
2024/01/13 10:21:28;;;;;;;7.10;3.03;;;;;;;;;;5052541;28;20036;-84
2024/01/13 10:24:15;;;;;;;8.10;2.65;;;;;;;;;;5067558;28;20084;-83
2024/01/13 10:26:44;;;;;;;9.18;2.85;;;;;;;;;;5067125;28;20027;-83
2024/01/13 10:29:13;;;;;;;8.82;3.15;;;;;;;;;;5062809;28;20056;-85
2024/01/13 10:31:48;;;;;;;8.00;3.42;;;;;;;;;;5056612;28;20266;-83
2024/01/13 10:34:20;;;;;;;6.75;2.80;;;;;;;;;;5067967;28;20148;-84
2024/01/13 10:36:50;;;;;;;8.65;3.30;;;;;;;;;;5054838;28;20659;-83
2024/01/13 10:39:19;;;;;;;7.80;2.42;;;;;;;;;;5071052;28;20023;-84
2024/01/13 10:41:52;;;;;;;7.50;2.80;;;;;;;;;;5060612;28;20149;-85
2024/01/13 10:44:30;;;;;;;7.30;2.60;;;;;;;;;;5072266;28;20026;-84
2024/01/13 10:46:59;;;;;;;7.68;2.50;;;;;;;;;;5067832;28;20051;-84
2024/01/13 10:49:36;;;;;;;8.55;3.00;;;;;;;;;;5052486;28;20032;-84
2024/01/13 10:52:14;;;;;;;7.30;2.70;;;;;;;;;;5069802;28;20032;-83
2024/01/13 10:54:43;;;;;;;7.15;2.45;;;;;;;;;;5072495;28;20040;-83
2024/01/13 10:57:12;;;;;;;7.90;2.60;;;;;;;;;;5055664;28;20063;-83
2024/01/13 10:59:43;;;;;;;6.65;2.55;;;;;;;;;;5054614;28;20031;-83
2024/01/13 11:02:14;;;;;;;8.77;2.50;;;;;;;;;;5073849;28;20032;-82
2024/01/13 11:04:42;;;;;;;8.43;2.53;;;;;;;;;;5052777;28;20119;-83
2024/01/13 11:07:09;;;;;;;7.82;2.65;;;;;;;;;;5066907;28;20067;-82
2024/01/13 11:09:39;;;;;;;7.20;2.53;;;;;;;;;;5049501;28;20511;-82
2024/01/13 11:12:24;;;;;;;8.75;2.38;;;;;;;;;;5053883;28;20131;-83
2024/01/13 11:15:03;;;;;;;7.90;2.25;;;;;;;;;;5069835;28;20213;-82
2024/01/13 11:17:40;;;;;;;9.57;3.80;;;;;;;;;;5071396;28;20104;-83
2024/01/13 11:20:13;;;;;;;8.27;2.60;;;;;;;;;;5060427;28;20039;-83
2024/01/13 11:22:43;;;;;;;8.55;2.33;;;;;;;;;;5066613;28;20448;-83
2024/01/13 11:25:28;;;;;;;8.30;2.38;;;;;;;;;;5047176;28;20047;-84
2024/01/13 11:28:00;;;;;;;6.45;2.35;;;;;;;;;;5066456;28;20044;-83
2024/01/13 11:30:39;;;;;;;5.97;2.45;;;;;;;;;;5053623;28;20687;-83
2024/01/13 11:33:19;;;;;;;6.85;2.83;;;;;;;;;;5068862;28;20040;-83
2024/01/13 11:35:51;;;;;;;6.53;2.60;;;;;;;;;;5052681;28;20122;-84
2024/01/13 11:38:20;;;;;;;8.27;3.00;;;;;;;;;;5051654;28;20052;-83
2024/01/13 11:40:52;;;;;;;6.80;2.60;;;;;;;;;;5052465;28;20040;-83
2024/01/13 11:43:23;;;;;;;8.85;2.70;;;;;;;;;;5047640;28;20090;-83
2024/01/13 11:45:52;;;;;;;8.80;3.20;;;;;;;;;;5037347;28;20040;-83
2024/01/13 11:48:54;;;;;;;7.35;2.80;;;;;;;;;;5067996;28;20047;-83
2024/01/13 11:51:23;;;;;;;9.75;3.30;;;;;;;;;;4950838;28;20153;-82
2024/01/13 11:53:58;;;;;;;8.80;3.25;;;;;;;;;;4972725;28;20042;-84
2024/01/13 11:56:28;;;;;;;7.75;3.00;;;;;;;;;;4968032;28;20026;-82
2024/01/13 11:58:57;;;;;;;9.68;3.47;;;;;;;;;;4956505;28;20200;-82
2024/01/13 12:01:26;;;;;;;10.60;3.42;;;;;;;;;;4966255;28;20034;-82
2024/01/13 12:03:52;;;;;;;10.80;4.03;;;;;;;;;;4953558;28;20034;-81
2024/01/13 12:06:21;;;;;;;9.15;3.55;;;;;;;;;;4970338;28;20550;-82
2024/01/13 12:08:56;;;;;;;9.88;3.70;;;;;;;;;;4953512;28;20511;-82
2024/01/13 12:11:25;;;;;;;10.43;3.88;;;;;;;;;;4952938;28;20462;-82
2024/01/13 12:14:15;;;;;;;9.77;3.60;;;;;;;;;;4952701;28;20117;-81
2024/01/13 12:16:44;;;;;;;9.07;4.10;;;;;;;;;;4971720;28;20030;-82
2024/01/13 12:19:13;;;;;;;10.05;4.05;;;;;;;;;;4952203;28;20540;-82
2024/01/13 12:22:03;;;;;;;9.63;4.07;;;;;;;;;;4936289;28;20141;-82
2024/01/13 12:24:33;;;;;;;11.88;5.15;;;;;;;;;;4981172;28;20075;-83
2024/01/13 12:27:01;;;;;;;9.20;4.15;;;;;;;;;;5030614;28;20137;-82
2024/01/13 12:29:31;;;;;;;8.63;4.05;;;;;;;;;;5030771;28;20049;-84
2024/01/13 12:32:03;;;;;;;7.57;2.90;;;;;;;;;;5046438;28;20751;-82
2024/01/13 12:34:35;;;;;;;8.15;3.08;;;;;;;;;;5048749;28;20755;-82
2024/01/13 12:37:04;;;;;;;7.25;2.90;;;;;;;;;;5046097;28;20037;-84
2024/01/13 12:39:32;;;;;;;7.40;2.63;;;;;;;;;;5050893;28;20778;-81
2024/01/13 12:42:01;;;;;;;8.52;2.67;;;;;;;;;;5053334;28;20078;-82
2024/01/13 12:44:31;;;;;;;8.07;2.47;;;;;;;;;;5046135;28;20689;-84
2024/01/13 12:46:59;;;;;;;9.18;2.80;;;;;;;;;;5051039;28;20029;-83
2024/01/13 12:49:28;;;;;;;7.47;2.53;;;;;;;;;;5051642;28;20553;-83
2024/01/13 12:51:58;;;;;;;7.18;2.20;;;;;;;;;;5050164;28;20028;-84
2024/01/13 12:54:33;;;;;;;7.53;2.20;;;;;;;;;;5050337;28;20040;-82
2024/01/13 12:57:02;;;;;;;8.90;2.67;;;;;;;;;;5050049;28;20539;-83
2024/01/13 12:59:31;;;;;;;6.75;2.42;;;;;;;;;;5051640;28;20028;-83
2024/01/13 13:02:08;;;;;;;7.05;2.20;;;;;;;;;;5050175;28;20081;-83
2024/01/13 13:04:37;;;;;;;7.85;2.50;;;;;;;;;;5050173;28;20115;-83
2024/01/13 13:07:06;;;;;;;8.52;2.75;;;;;;;;;;5048338;28;20131;-84
2024/01/13 13:09:32;;;;;;;7.82;2.63;;;;;;;;;;5056145;28;20037;-83
2024/01/13 13:12:00;;;;;;;6.95;2.90;;;;;;;;;;5055666;28;20028;-83
2024/01/13 13:14:29;;;;;;;10.05;2.50;;;;;;;;;;5047395;28;20036;-83
2024/01/13 13:16:57;;;;;;;8.07;2.85;;;;;;;;;;5046262;28;20033;-83
2024/01/13 13:19:26;;;;;;;6.65;2.42;;;;;;;;;;5051217;28;20025;-84
2024/01/13 13:21:53;;;;;;;8.63;2.30;;;;;;;;;;5050525;28;20115;-83
2024/01/13 13:24:21;;;;;;;6.95;2.03;;;;;;;;;;5046527;28;20029;-83
2024/01/13 13:26:48;;;;;;;6.72;2.00;;;;;;;;;;5058040;28;20025;-83
2024/01/13 13:29:17;;;;;;;10.00;2.65;;;;;;;;;;5073885;28;20587;-83
2024/01/13 13:31:46;;;;;;;6.38;2.03;;;;;;;;;;5061021;28;20039;-83
2024/01/13 13:34:14;;;;;;;6.07;2.00;;;;;;;;;;5070496;28;20032;-83
2024/01/13 13:36:41;;;;;;;6.35;2.00;;;;;;;;;;5056592;28;20032;-83
2024/01/13 13:39:10;;;;;;;6.85;2.30;;;;;;;;;;5064639;28;20120;-83
2024/01/13 13:41:39;;;;;;;7.03;2.20;;;;;;;;;;5071752;28;20040;-83
2024/01/13 13:44:17;;;;;;;6.88;2.15;;;;;;;;;;5068106;28;20036;-83
2024/01/13 13:46:44;;;;;;;5.53;1.90;;;;;;;;;;5056565;28;20028;-83
2024/01/13 13:49:13;;;;;;;6.45;2.28;;;;;;;;;;5051985;28;20509;-83
2024/01/13 13:51:42;;;;;;;9.13;2.47;;;;;;;;;;5057898;28;20030;-83
2024/01/13 13:54:11;;;;;;;6.72;1.88;;;;;;;;;;5070533;28;20039;-84
2024/01/13 13:56:39;;;;;;;6.63;2.00;;;;;;;;;;5077536;28;20047;-84
2024/01/13 13:59:05;;;;;;;6.75;2.00;;;;;;;;;;5054780;28;20123;-86
2024/01/13 14:01:34;;;;;;;7.28;1.90;;;;;;;;;;5058395;28;20367;-85
2024/01/13 14:04:04;;;;;;;7.63;2.30;;;;;;;;;;5072279;28;20118;-83
2024/01/13 14:06:33;;;;;;;7.45;2.05;;;;;;;;;;5071944;28;20667;-85
2024/01/13 14:09:00;;;;;;;8.02;2.55;;;;;;;;;;5039554;28;20066;-82
2024/01/13 14:11:29;;;;;;;7.78;2.75;;;;;;;;;;5071427;28;20020;-83
2024/01/13 14:13:56;;;;;;;7.88;2.80;;;;;;;;;;5071443;28;20020;-82
2024/01/13 14:16:25;;;;;;;7.13;2.58;;;;;;;;;;5054718;28;20036;-85
2024/01/13 14:18:54;;;;;;;10.10;2.20;;;;;;;;;;5072131;28;20044;-84
2024/01/13 14:21:23;;;;;;;7.35;2.13;;;;;;;;;;5055048;28;20078;-83
2024/01/13 14:23:52;;;;;;;6.35;2.33;;;;;;;;;;5076494;28;20029;-83
2024/01/13 14:26:20;;;;;;;5.82;2.40;;;;;;;;;;5072880;28;20535;-82
2024/01/13 14:28:49;;;;;;;8.98;2.97;;;;;;;;;;5054288;28;20062;-82
2024/01/13 14:31:18;;;;;;;9.02;3.13;;;;;;;;;;5062212;28;20067;-82
2024/01/13 14:33:47;;;;;;;9.00;2.33;;;;;;;;;;5065234;28;20730;-87
2024/01/13 14:36:16;;;;;;;8.30;2.50;;;;;;;;;;5064657;28;20028;-85
2024/01/13 14:38:44;;;;;;;8.02;2.20;;;;;;;;;;5064121;28;20056;-85
2024/01/13 14:41:11;;;;;;;7.15;2.30;;;;;;;;;;5054274;28;20512;-85
2024/01/13 14:43:41;;;;;;;7.28;2.38;;;;;;;;;;5071233;28;20103;-85
2024/01/13 14:46:10;;;;;;;8.05;2.13;;;;;;;;;;5065713;28;20027;-84
2024/01/13 14:48:48;;;;;;;7.13;2.13;;;;;;;;;;5064359;28;20559;-84
2024/01/13 14:51:20;;;;;;;8.30;2.38;;;;;;;;;;5057357;28;20040;-83
2024/01/13 14:53:57;;;;;;;8.20;2.90;;;;;;;;;;5060755;28;20036;-84